sensor_id;sensor_type;location;lat;lon;timestamp;P1;durP1;ratioP1;P2;durP2;ratioP2
79539;SDS011;68991;52.122;5.406;2023-07-13T00:00:08;1.15;;;0.70;;
79539;SDS011;68991;52.122;5.406;2023-07-13T00:02:36;2.22;;;1.00;;
79539;SDS011;68991;52.122;5.406;2023-07-13T00:05:02;2.97;;;1.00;;
79539;SDS011;68991;52.122;5.406;2023-07-13T00:07:29;1.52;;;0.85;;
79539;SDS011;68991;52.122;5.406;2023-07-13T00:09:57;2.63;;;0.90;;
79539;SDS011;68991;52.122;5.406;2023-07-13T00:12:27;2.88;;;1.20;;
79539;SDS011;68991;52.122;5.406;2023-07-13T00:14:59;2.35;;;0.70;;
79539;SDS011;68991;52.122;5.406;2023-07-13T00:17:27;1.45;;;0.95;;
79539;SDS011;68991;52.122;5.406;2023-07-13T00:19:55;2.53;;;1.23;;
79539;SDS011;68991;52.122;5.406;2023-07-13T00:22:23;1.90;;;0.80;;
79539;SDS011;68991;52.122;5.406;2023-07-13T00:24:52;3.40;;;1.05;;
79539;SDS011;68991;52.122;5.406;2023-07-13T00:27:21;2.33;;;1.00;;
79539;SDS011;68991;52.122;5.406;2023-07-13T00:29:49;1.67;;;0.80;;
79539;SDS011;68991;52.122;5.406;2023-07-13T00:32:15;1.73;;;0.98;;
79539;SDS011;68991;52.122;5.406;2023-07-13T00:34:42;1.73;;;0.77;;
79539;SDS011;68991;52.122;5.406;2023-07-13T00:37:09;1.65;;;0.90;;
79539;SDS011;68991;52.122;5.406;2023-07-13T00:39:37;1.90;;;0.85;;
79539;SDS011;68991;52.122;5.406;2023-07-13T00:42:05;1.90;;;0.95;;
79539;SDS011;68991;52.122;5.406;2023-07-13T00:44:32;1.40;;;0.80;;
79539;SDS011;68991;52.122;5.406;2023-07-13T00:46:59;1.77;;;1.15;;
79539;SDS011;68991;52.122;5.406;2023-07-13T00:49:27;1.90;;;1.10;;
79539;SDS011;68991;52.122;5.406;2023-07-13T00:54:26;1.80;;;0.90;;
79539;SDS011;68991;52.122;5.406;2023-07-13T00:56:58;2.20;;;1.10;;
79539;SDS011;68991;52.122;5.406;2023-07-13T00:59:26;3.42;;;0.98;;
79539;SDS011;68991;52.122;5.406;2023-07-13T01:01:54;2.60;;;0.88;;
79539;SDS011;68991;52.122;5.406;2023-07-13T01:04:23;2.65;;;0.80;;
79539;SDS011;68991;52.122;5.406;2023-07-13T01:06:51;2.47;;;1.35;;
79539;SDS011;68991;52.122;5.406;2023-07-13T01:09:19;3.28;;;1.00;;
79539;SDS011;68991;52.122;5.406;2023-07-13T01:11:46;3.25;;;0.95;;
79539;SDS011;68991;52.122;5.406;2023-07-13T01:14:13;2.08;;;1.35;;
79539;SDS011;68991;52.122;5.406;2023-07-13T01:16:41;3.05;;;0.85;;
79539;SDS011;68991;52.122;5.406;2023-07-13T01:21:50;1.05;;;0.60;;
79539;SDS011;68991;52.122;5.406;2023-07-13T01:24:18;1.35;;;0.90;;
79539;SDS011;68991;52.122;5.406;2023-07-13T01:26:45;3.03;;;1.13;;
79539;SDS011;68991;52.122;5.406;2023-07-13T01:29:11;1.50;;;1.00;;
79539;SDS011;68991;52.122;5.406;2023-07-13T01:31:38;1.50;;;0.80;;
79539;SDS011;68991;52.122;5.406;2023-07-13T01:34:04;3.40;;;1.20;;
79539;SDS011;68991;52.122;5.406;2023-07-13T01:36:31;1.48;;;1.00;;
79539;SDS011;68991;52.122;5.406;2023-07-13T01:38:58;2.42;;;1.08;;
79539;SDS011;68991;52.122;5.406;2023-07-13T01:41:24;2.88;;;1.05;;
79539;SDS011;68991;52.122;5.406;2023-07-13T01:43:51;3.67;;;1.00;;
79539;SDS011;68991;52.122;5.406;2023-07-13T01:46:18;1.33;;;0.70;;
79539;SDS011;68991;52.122;5.406;2023-07-13T01:48:49;2.05;;;0.90;;
79539;SDS011;68991;52.122;5.406;2023-07-13T01:51:16;1.73;;;0.70;;
79539;SDS011;68991;52.122;5.406;2023-07-13T01:53:44;2.00;;;0.70;;
79539;SDS011;68991;52.122;5.406;2023-07-13T01:56:11;2.38;;;0.90;;
79539;SDS011;68991;52.122;5.406;2023-07-13T01:58:38;1.38;;;0.80;;
79539;SDS011;68991;52.122;5.406;2023-07-13T02:01:05;1.50;;;0.60;;
79539;SDS011;68991;52.122;5.406;2023-07-13T02:03:31;2.67;;;1.00;;
79539;SDS011;68991;52.122;5.406;2023-07-13T02:05:58;1.70;;;0.90;;
79539;SDS011;68991;52.122;5.406;2023-07-13T02:08:24;2.35;;;0.90;;
79539;SDS011;68991;52.122;5.406;2023-07-13T02:10:51;2.60;;;1.20;;
79539;SDS011;68991;52.122;5.406;2023-07-13T02:13:17;1.90;;;1.00;;
79539;SDS011;68991;52.122;5.406;2023-07-13T02:15:44;2.20;;;1.00;;
79539;SDS011;68991;52.122;5.406;2023-07-13T02:18:11;2.00;;;0.80;;
79539;SDS011;68991;52.122;5.406;2023-07-13T02:20:42;1.67;;;0.95;;
79539;SDS011;68991;52.122;5.406;2023-07-13T02:23:10;3.92;;;0.90;;
79539;SDS011;68991;52.122;5.406;2023-07-13T02:25:37;2.78;;;1.10;;
79539;SDS011;68991;52.122;5.406;2023-07-13T02:28:04;1.85;;;1.00;;
79539;SDS011;68991;52.122;5.406;2023-07-13T02:30:30;2.28;;;0.93;;
79539;SDS011;68991;52.122;5.406;2023-07-13T02:32:57;2.30;;;0.93;;
79539;SDS011;68991;52.122;5.406;2023-07-13T02:35:23;1.67;;;0.90;;
79539;SDS011;68991;52.122;5.406;2023-07-13T02:37:50;2.45;;;0.95;;
79539;SDS011;68991;52.122;5.406;2023-07-13T02:40:16;1.20;;;0.88;;
79539;SDS011;68991;52.122;5.406;2023-07-13T02:42:43;2.67;;;0.70;;
79539;SDS011;68991;52.122;5.406;2023-07-13T02:45:09;1.40;;;0.98;;
79539;SDS011;68991;52.122;5.406;2023-07-13T02:47:36;1.20;;;0.60;;
79539;SDS011;68991;52.122;5.406;2023-07-13T02:50:03;1.30;;;0.88;;
79539;SDS011;68991;52.122;5.406;2023-07-13T02:52:30;1.63;;;0.80;;
79539;SDS011;68991;52.122;5.406;2023-07-13T02:54:56;1.83;;;0.80;;
79539;SDS011;68991;52.122;5.406;2023-07-13T02:57:23;3.35;;;1.20;;
79539;SDS011;68991;52.122;5.406;2023-07-13T02:59:49;2.33;;;1.00;;
79539;SDS011;68991;52.122;5.406;2023-07-13T03:02:16;1.95;;;0.90;;
79539;SDS011;68991;52.122;5.406;2023-07-13T03:04:43;1.30;;;0.80;;
79539;SDS011;68991;52.122;5.406;2023-07-13T03:07:09;1.55;;;0.88;;
79539;SDS011;68991;52.122;5.406;2023-07-13T03:09:37;1.70;;;0.90;;
79539;SDS011;68991;52.122;5.406;2023-07-13T03:12:04;1.60;;;0.95;;
79539;SDS011;68991;52.122;5.406;2023-07-13T03:14:30;1.40;;;0.90;;
79539;SDS011;68991;52.122;5.406;2023-07-13T03:16:57;3.08;;;1.35;;
79539;SDS011;68991;52.122;5.406;2023-07-13T03:19:24;1.70;;;0.82;;
79539;SDS011;68991;52.122;5.406;2023-07-13T03:21:51;2.75;;;1.15;;
79539;SDS011;68991;52.122;5.406;2023-07-13T03:24:17;1.50;;;0.70;;
79539;SDS011;68991;52.122;5.406;2023-07-13T03:26:44;1.35;;;0.90;;
79539;SDS011;68991;52.122;5.406;2023-07-13T03:29:11;2.13;;;0.90;;
79539;SDS011;68991;52.122;5.406;2023-07-13T03:31:37;2.95;;;0.90;;
79539;SDS011;68991;52.122;5.406;2023-07-13T03:34:04;6.93;;;1.55;;
79539;SDS011;68991;52.122;5.406;2023-07-13T03:36:31;5.65;;;1.90;;
79539;SDS011;68991;52.122;5.406;2023-07-13T03:38:59;2.67;;;1.27;;
79539;SDS011;68991;52.122;5.406;2023-07-13T03:41:27;4.95;;;1.38;;
79539;SDS011;68991;52.122;5.406;2023-07-13T03:43:54;7.90;;;1.63;;
79539;SDS011;68991;52.122;5.406;2023-07-13T03:46:20;6.07;;;1.88;;
79539;SDS011;68991;52.122;5.406;2023-07-13T03:48:47;6.00;;;1.58;;
79539;SDS011;68991;52.122;5.406;2023-07-13T03:51:14;7.00;;;1.67;;
79539;SDS011;68991;52.122;5.406;2023-07-13T03:53:43;5.90;;;2.03;;
79539;SDS011;68991;52.122;5.406;2023-07-13T03:56:11;6.28;;;1.90;;
79539;SDS011;68991;52.122;5.406;2023-07-13T03:58:39;5.90;;;1.83;;
79539;SDS011;68991;52.122;5.406;2023-07-13T04:01:08;6.53;;;1.85;;
79539;SDS011;68991;52.122;5.406;2023-07-13T04:03:36;4.88;;;1.75;;
79539;SDS011;68991;52.122;5.406;2023-07-13T04:06:03;3.85;;;1.30;;
79539;SDS011;68991;52.122;5.406;2023-07-13T04:08:33;3.78;;;1.30;;
79539;SDS011;68991;52.122;5.406;2023-07-13T04:11:01;5.20;;;1.45;;
79539;SDS011;68991;52.122;5.406;2023-07-13T04:13:28;5.43;;;1.50;;
79539;SDS011;68991;52.122;5.406;2023-07-13T04:15:55;3.55;;;1.50;;
79539;SDS011;68991;52.122;5.406;2023-07-13T04:18:22;3.55;;;1.20;;
79539;SDS011;68991;52.122;5.406;2023-07-13T04:20:49;2.92;;;1.20;;
79539;SDS011;68991;52.122;5.406;2023-07-13T04:23:16;4.60;;;1.33;;
79539;SDS011;68991;52.122;5.406;2023-07-13T04:25:47;4.50;;;1.27;;
79539;SDS011;68991;52.122;5.406;2023-07-13T04:28:19;2.08;;;1.20;;
79539;SDS011;68991;52.122;5.406;2023-07-13T04:30:48;4.32;;;1.25;;
79539;SDS011;68991;52.122;5.406;2023-07-13T04:33:15;4.40;;;1.45;;
79539;SDS011;68991;52.122;5.406;2023-07-13T04:35:43;3.28;;;1.45;;
79539;SDS011;68991;52.122;5.406;2023-07-13T04:38:13;3.47;;;1.45;;
79539;SDS011;68991;52.122;5.406;2023-07-13T04:40:42;2.83;;;1.10;;
79539;SDS011;68991;52.122;5.406;2023-07-13T04:43:11;2.53;;;1.23;;
79539;SDS011;68991;52.122;5.406;2023-07-13T04:45:37;4.35;;;1.35;;
79539;SDS011;68991;52.122;5.406;2023-07-13T04:48:04;4.07;;;1.42;;
79539;SDS011;68991;52.122;5.406;2023-07-13T04:50:31;2.85;;;1.35;;
79539;SDS011;68991;52.122;5.406;2023-07-13T04:52:58;4.30;;;1.25;;
79539;SDS011;68991;52.122;5.406;2023-07-13T04:55:25;4.57;;;1.50;;
79539;SDS011;68991;52.122;5.406;2023-07-13T04:57:51;2.72;;;1.20;;
79539;SDS011;68991;52.122;5.406;2023-07-13T05:00:18;3.53;;;1.20;;
79539;SDS011;68991;52.122;5.406;2023-07-13T05:02:46;4.35;;;1.20;;
79539;SDS011;68991;52.122;5.406;2023-07-13T05:05:13;5.63;;;1.50;;
79539;SDS011;68991;52.122;5.406;2023-07-13T05:07:39;2.45;;;1.08;;
79539;SDS011;68991;52.122;5.406;2023-07-13T05:10:06;3.70;;;1.30;;
79539;SDS011;68991;52.122;5.406;2023-07-13T05:12:33;3.17;;;1.35;;
79539;SDS011;68991;52.122;5.406;2023-07-13T05:15:00;2.15;;;1.38;;
79539;SDS011;68991;52.122;5.406;2023-07-13T05:17:29;3.63;;;1.20;;
79539;SDS011;68991;52.122;5.406;2023-07-13T05:19:58;3.03;;;1.38;;
79539;SDS011;68991;52.122;5.406;2023-07-13T05:22:24;3.05;;;1.30;;
79539;SDS011;68991;52.122;5.406;2023-07-13T05:24:51;4.15;;;1.50;;
79539;SDS011;68991;52.122;5.406;2023-07-13T05:27:18;3.38;;;1.17;;
79539;SDS011;68991;52.122;5.406;2023-07-13T05:29:44;2.83;;;1.40;;
79539;SDS011;68991;52.122;5.406;2023-07-13T05:32:11;3.85;;;1.50;;
79539;SDS011;68991;52.122;5.406;2023-07-13T05:34:37;5.15;;;1.60;;
79539;SDS011;68991;52.122;5.406;2023-07-13T05:37:04;4.88;;;1.30;;
79539;SDS011;68991;52.122;5.406;2023-07-13T05:39:31;2.45;;;1.00;;
79539;SDS011;68991;52.122;5.406;2023-07-13T05:41:57;3.38;;;1.50;;
79539;SDS011;68991;52.122;5.406;2023-07-13T05:44:24;5.63;;;1.60;;
79539;SDS011;68991;52.122;5.406;2023-07-13T05:46:50;3.35;;;1.30;;
79539;SDS011;68991;52.122;5.406;2023-07-13T05:49:17;2.90;;;1.90;;
79539;SDS011;68991;52.122;5.406;2023-07-13T05:51:44;3.42;;;1.13;;
79539;SDS011;68991;52.122;5.406;2023-07-13T05:54:10;2.95;;;1.20;;
79539;SDS011;68991;52.122;5.406;2023-07-13T05:56:37;5.43;;;1.30;;
79539;SDS011;68991;52.122;5.406;2023-07-13T05:59:03;3.92;;;1.38;;
79539;SDS011;68991;52.122;5.406;2023-07-13T06:01:30;3.22;;;1.20;;
79539;SDS011;68991;52.122;5.406;2023-07-13T06:03:57;2.17;;;1.52;;
79539;SDS011;68991;52.122;5.406;2023-07-13T06:06:24;4.00;;;1.48;;
79539;SDS011;68991;52.122;5.406;2023-07-13T06:08:52;3.10;;;1.50;;
79539;SDS011;68991;52.122;5.406;2023-07-13T06:11:21;4.93;;;1.58;;
79539;SDS011;68991;52.122;5.406;2023-07-13T06:13:49;4.95;;;1.50;;
79539;SDS011;68991;52.122;5.406;2023-07-13T06:16:16;4.00;;;1.80;;
79539;SDS011;68991;52.122;5.406;2023-07-13T06:18:44;4.45;;;1.60;;
79539;SDS011;68991;52.122;5.406;2023-07-13T06:21:12;3.15;;;1.33;;
79539;SDS011;68991;52.122;5.406;2023-07-13T06:23:40;4.68;;;1.70;;
79539;SDS011;68991;52.122;5.406;2023-07-13T06:26:07;4.43;;;1.50;;
79539;SDS011;68991;52.122;5.406;2023-07-13T06:28:35;3.33;;;1.58;;
79539;SDS011;68991;52.122;5.406;2023-07-13T06:31:04;3.25;;;1.40;;
79539;SDS011;68991;52.122;5.406;2023-07-13T06:33:33;4.28;;;1.75;;
79539;SDS011;68991;52.122;5.406;2023-07-13T06:36:00;2.63;;;1.45;;
79539;SDS011;68991;52.122;5.406;2023-07-13T06:38:28;5.38;;;1.85;;
79539;SDS011;68991;52.122;5.406;2023-07-13T06:40:55;4.60;;;1.95;;
79539;SDS011;68991;52.122;5.406;2023-07-13T06:43:21;4.70;;;1.70;;
79539;SDS011;68991;52.122;5.406;2023-07-13T06:45:48;3.60;;;1.67;;
79539;SDS011;68991;52.122;5.406;2023-07-13T06:48:16;3.08;;;1.15;;
79539;SDS011;68991;52.122;5.406;2023-07-13T06:50:44;4.90;;;1.58;;
79539;SDS011;68991;52.122;5.406;2023-07-13T06:53:12;4.43;;;1.73;;
79539;SDS011;68991;52.122;5.406;2023-07-13T06:55:39;4.35;;;1.80;;
79539;SDS011;68991;52.122;5.406;2023-07-13T06:58:06;3.55;;;1.77;;
79539;SDS011;68991;52.122;5.406;2023-07-13T07:00:33;5.63;;;1.60;;
79539;SDS011;68991;52.122;5.406;2023-07-13T07:02:59;4.97;;;2.15;;
79539;SDS011;68991;52.122;5.406;2023-07-13T07:05:26;3.47;;;1.58;;
79539;SDS011;68991;52.122;5.406;2023-07-13T07:07:53;5.47;;;1.92;;
79539;SDS011;68991;52.122;5.406;2023-07-13T07:10:21;3.97;;;1.70;;
79539;SDS011;68991;52.122;5.406;2023-07-13T07:12:48;4.20;;;1.92;;
79539;SDS011;68991;52.122;5.406;2023-07-13T07:15:15;4.80;;;1.50;;
79539;SDS011;68991;52.122;5.406;2023-07-13T07:17:43;4.75;;;1.55;;
79539;SDS011;68991;52.122;5.406;2023-07-13T07:20:10;3.75;;;1.88;;
79539;SDS011;68991;52.122;5.406;2023-07-13T07:22:37;2.97;;;2.05;;
79539;SDS011;68991;52.122;5.406;2023-07-13T07:25:04;6.57;;;2.42;;
79539;SDS011;68991;52.122;5.406;2023-07-13T07:27:30;4.65;;;2.30;;
79539;SDS011;68991;52.122;5.406;2023-07-13T07:30:00;3.97;;;2.03;;
79539;SDS011;68991;52.122;5.406;2023-07-13T07:32:30;5.35;;;1.98;;
79539;SDS011;68991;52.122;5.406;2023-07-13T07:35:17;5.70;;;2.20;;
79539;SDS011;68991;52.122;5.406;2023-07-13T07:37:43;3.17;;;1.67;;
79539;SDS011;68991;52.122;5.406;2023-07-13T07:40:13;3.97;;;1.63;;
79539;SDS011;68991;52.122;5.406;2023-07-13T07:42:42;4.35;;;2.03;;
79539;SDS011;68991;52.122;5.406;2023-07-13T07:45:09;4.03;;;1.92;;
79539;SDS011;68991;52.122;5.406;2023-07-13T07:47:37;3.30;;;1.90;;
79539;SDS011;68991;52.122;5.406;2023-07-13T07:50:05;4.28;;;2.10;;
79539;SDS011;68991;52.122;5.406;2023-07-13T07:52:32;4.13;;;1.95;;
79539;SDS011;68991;52.122;5.406;2023-07-13T07:54:58;4.25;;;2.05;;
79539;SDS011;68991;52.122;5.406;2023-07-13T07:57:28;3.25;;;2.15;;
79539;SDS011;68991;52.122;5.406;2023-07-13T07:59:57;2.92;;;1.80;;
79539;SDS011;68991;52.122;5.406;2023-07-13T08:02:27;3.38;;;1.60;;
79539;SDS011;68991;52.122;5.406;2023-07-13T08:04:56;3.72;;;2.00;;
79539;SDS011;68991;52.122;5.406;2023-07-13T08:07:25;2.58;;;1.73;;
79539;SDS011;68991;52.122;5.406;2023-07-13T08:09:52;5.00;;;1.95;;
79539;SDS011;68991;52.122;5.406;2023-07-13T08:12:19;3.80;;;1.90;;
79539;SDS011;68991;52.122;5.406;2023-07-13T08:15:06;4.57;;;1.83;;
79539;SDS011;68991;52.122;5.406;2023-07-13T08:17:36;4.10;;;2.15;;
79539;SDS011;68991;52.122;5.406;2023-07-13T08:20:03;3.28;;;1.80;;
79539;SDS011;68991;52.122;5.406;2023-07-13T08:22:30;3.90;;;2.17;;
79539;SDS011;68991;52.122;5.406;2023-07-13T08:24:57;4.13;;;2.42;;
79539;SDS011;68991;52.122;5.406;2023-07-13T08:27:25;3.70;;;2.00;;
79539;SDS011;68991;52.122;5.406;2023-07-13T08:29:54;4.55;;;1.92;;
79539;SDS011;68991;52.122;5.406;2023-07-13T08:32:21;2.72;;;1.60;;
79539;SDS011;68991;52.122;5.406;2023-07-13T08:34:49;4.70;;;1.90;;
79539;SDS011;68991;52.122;5.406;2023-07-13T08:37:16;4.05;;;2.13;;
79539;SDS011;68991;52.122;5.406;2023-07-13T08:39:43;3.67;;;1.65;;
79539;SDS011;68991;52.122;5.406;2023-07-13T08:42:31;2.85;;;1.80;;
79539;SDS011;68991;52.122;5.406;2023-07-13T08:45:18;2.65;;;1.65;;
79539;SDS011;68991;52.122;5.406;2023-07-13T08:51:02;3.72;;;2.00;;
79539;SDS011;68991;52.122;5.406;2023-07-13T08:53:39;2.72;;;1.98;;
79539;SDS011;68991;52.122;5.406;2023-07-13T08:56:16;4.95;;;2.03;;
79539;SDS011;68991;52.122;5.406;2023-07-13T08:58:46;4.22;;;1.80;;
79539;SDS011;68991;52.122;5.406;2023-07-13T09:01:41;3.33;;;1.80;;
79539;SDS011;68991;52.122;5.406;2023-07-13T09:04:17;2.40;;;1.85;;
79539;SDS011;68991;52.122;5.406;2023-07-13T09:06:58;2.85;;;1.60;;
79539;SDS011;68991;52.122;5.406;2023-07-13T09:12:21;3.95;;;1.73;;
79539;SDS011;68991;52.122;5.406;2023-07-13T09:14:57;2.85;;;1.52;;
79539;SDS011;68991;52.122;5.406;2023-07-13T09:17:31;4.50;;;1.67;;
79539;SDS011;68991;52.122;5.406;2023-07-13T09:20:03;3.65;;;1.80;;
79539;SDS011;68991;52.122;5.406;2023-07-13T09:22:37;3.75;;;1.90;;
79539;SDS011;68991;52.122;5.406;2023-07-13T09:25:05;3.17;;;1.63;;
79539;SDS011;68991;52.122;5.406;2023-07-13T09:27:57;3.15;;;1.83;;
79539;SDS011;68991;52.122;5.406;2023-07-13T09:31:00;2.55;;;1.50;;
79539;SDS011;68991;52.122;5.406;2023-07-13T09:33:29;3.85;;;1.50;;
79539;SDS011;68991;52.122;5.406;2023-07-13T09:35:57;3.25;;;1.73;;
79539;SDS011;68991;52.122;5.406;2023-07-13T09:38:28;2.35;;;1.55;;
79539;SDS011;68991;52.122;5.406;2023-07-13T09:41:13;3.58;;;1.70;;
79539;SDS011;68991;52.122;5.406;2023-07-13T09:46:44;2.63;;;1.65;;
79539;SDS011;68991;52.122;5.406;2023-07-13T09:49:13;3.00;;;1.80;;
79539;SDS011;68991;52.122;5.406;2023-07-13T09:51:42;2.20;;;1.40;;
79539;SDS011;68991;52.122;5.406;2023-07-13T09:54:20;3.97;;;1.48;;
79539;SDS011;68991;52.122;5.406;2023-07-13T09:56:57;4.18;;;1.60;;
79539;SDS011;68991;52.122;5.406;2023-07-13T09:59:35;2.42;;;1.65;;
79539;SDS011;68991;52.122;5.406;2023-07-13T10:04:57;3.83;;;1.88;;
79539;SDS011;68991;52.122;5.406;2023-07-13T10:07:31;4.97;;;2.17;;
79539;SDS011;68991;52.122;5.406;2023-07-13T10:10:13;2.15;;;1.42;;
79539;SDS011;68991;52.122;5.406;2023-07-13T10:12:48;3.42;;;1.60;;
79539;SDS011;68991;52.122;5.406;2023-07-13T10:15:17;3.25;;;1.52;;
79539;SDS011;68991;52.122;5.406;2023-07-13T10:17:51;2.30;;;1.90;;
79539;SDS011;68991;52.122;5.406;2023-07-13T10:20:19;3.85;;;1.70;;
79539;SDS011;68991;52.122;5.406;2023-07-13T10:23:02;2.70;;;1.25;;
79539;SDS011;68991;52.122;5.406;2023-07-13T10:25:36;2.00;;;1.52;;
79539;SDS011;68991;52.122;5.406;2023-07-13T10:28:11;3.42;;;1.70;;
79539;SDS011;68991;52.122;5.406;2023-07-13T10:30:47;2.80;;;1.45;;
79539;SDS011;68991;52.122;5.406;2023-07-13T10:33:16;3.08;;;1.88;;
79539;SDS011;68991;52.122;5.406;2023-07-13T10:35:43;2.55;;;1.60;;
79539;SDS011;68991;52.122;5.406;2023-07-13T10:38:18;3.92;;;1.80;;
79539;SDS011;68991;52.122;5.406;2023-07-13T10:43:35;3.15;;;1.73;;
79539;SDS011;68991;52.122;5.406;2023-07-13T10:46:06;1.80;;;1.40;;
79539;SDS011;68991;52.122;5.406;2023-07-13T10:48:34;2.28;;;1.63;;
79539;SDS011;68991;52.122;5.406;2023-07-13T10:51:03;4.10;;;1.70;;
79539;SDS011;68991;52.122;5.406;2023-07-13T10:53:36;2.35;;;1.58;;
79539;SDS011;68991;52.122;5.406;2023-07-13T10:56:14;3.10;;;1.67;;
79539;SDS011;68991;52.122;5.406;2023-07-13T10:59:10;2.13;;;1.40;;
79539;SDS011;68991;52.122;5.406;2023-07-13T11:04:40;2.65;;;1.67;;
79539;SDS011;68991;52.122;5.406;2023-07-13T11:07:11;3.35;;;1.73;;
79539;SDS011;68991;52.122;5.406;2023-07-13T11:09:49;2.55;;;1.38;;
79539;SDS011;68991;52.122;5.406;2023-07-13T11:17:24;2.47;;;1.38;;
79539;SDS011;68991;52.122;5.406;2023-07-13T11:19:52;2.95;;;1.88;;
79539;SDS011;68991;52.122;5.406;2023-07-13T11:22:22;2.45;;;1.38;;
79539;SDS011;68991;52.122;5.406;2023-07-13T11:25:01;2.15;;;1.48;;
79539;SDS011;68991;52.122;5.406;2023-07-13T11:27:50;2.60;;;1.40;;
79539;SDS011;68991;52.122;5.406;2023-07-13T11:30:23;3.83;;;1.85;;
79539;SDS011;68991;52.122;5.406;2023-07-13T11:35:33;3.53;;;1.50;;
79539;SDS011;68991;52.122;5.406;2023-07-13T11:38:02;2.90;;;1.80;;
79539;SDS011;68991;52.122;5.406;2023-07-13T11:40:36;2.08;;;1.55;;
79539;SDS011;68991;52.122;5.406;2023-07-13T11:43:02;3.10;;;1.83;;
79539;SDS011;68991;52.122;5.406;2023-07-13T11:45:33;2.63;;;1.55;;
79539;SDS011;68991;52.122;5.406;2023-07-13T11:48:29;3.00;;;1.55;;
79539;SDS011;68991;52.122;5.406;2023-07-13T11:50:59;2.70;;;1.60;;
79539;SDS011;68991;52.122;5.406;2023-07-13T11:53:29;4.47;;;1.77;;
79539;SDS011;68991;52.122;5.406;2023-07-13T11:56:04;2.33;;;1.63;;
79539;SDS011;68991;52.122;5.406;2023-07-13T11:58:31;2.40;;;1.65;;
79539;SDS011;68991;52.122;5.406;2023-07-13T12:00:59;2.63;;;1.40;;
79539;SDS011;68991;52.122;5.406;2023-07-13T12:03:31;1.80;;;1.42;;
79539;SDS011;68991;52.122;5.406;2023-07-13T12:06:02;2.78;;;1.88;;
79539;SDS011;68991;52.122;5.406;2023-07-13T12:08:37;1.70;;;1.50;;
79539;SDS011;68991;52.122;5.406;2023-07-13T12:11:11;2.33;;;1.48;;
79539;SDS011;68991;52.122;5.406;2023-07-13T12:13:43;3.03;;;1.77;;
79539;SDS011;68991;52.122;5.406;2023-07-13T12:16:15;2.50;;;1.42;;
79539;SDS011;68991;52.122;5.406;2023-07-13T12:19:00;2.00;;;1.48;;
79539;SDS011;68991;52.122;5.406;2023-07-13T12:21:36;2.17;;;1.58;;
79539;SDS011;68991;52.122;5.406;2023-07-13T12:24:04;2.30;;;1.50;;
79539;SDS011;68991;52.122;5.406;2023-07-13T12:26:39;4.22;;;1.70;;
79539;SDS011;68991;52.122;5.406;2023-07-13T12:29:06;2.70;;;1.70;;
79539;SDS011;68991;52.122;5.406;2023-07-13T12:31:39;2.42;;;1.70;;
79539;SDS011;68991;52.122;5.406;2023-07-13T12:34:10;1.95;;;1.25;;
79539;SDS011;68991;52.122;5.406;2023-07-13T12:36:45;2.67;;;1.40;;
79539;SDS011;68991;52.122;5.406;2023-07-13T12:39:35;2.65;;;1.30;;
79539;SDS011;68991;52.122;5.406;2023-07-13T12:42:28;2.88;;;1.50;;
79539;SDS011;68991;52.122;5.406;2023-07-13T12:45:00;3.35;;;1.63;;
79539;SDS011;68991;52.122;5.406;2023-07-13T12:47:31;2.67;;;1.42;;
79539;SDS011;68991;52.122;5.406;2023-07-13T12:50:16;2.47;;;1.67;;
79539;SDS011;68991;52.122;5.406;2023-07-13T12:52:49;3.05;;;1.70;;
79539;SDS011;68991;52.122;5.406;2023-07-13T12:55:18;2.17;;;1.42;;
79539;SDS011;68991;52.122;5.406;2023-07-13T12:57:54;3.00;;;1.80;;
79539;SDS011;68991;52.122;5.406;2023-07-13T13:00:24;2.45;;;1.58;;
79539;SDS011;68991;52.122;5.406;2023-07-13T13:02:55;2.15;;;1.63;;
79539;SDS011;68991;52.122;5.406;2023-07-13T13:05:43;2.40;;;1.58;;
79539;SDS011;68991;52.122;5.406;2023-07-13T13:08:12;2.00;;;1.80;;
79539;SDS011;68991;52.122;5.406;2023-07-13T13:10:39;3.42;;;1.77;;
79539;SDS011;68991;52.122;5.406;2023-07-13T13:13:05;3.40;;;1.40;;
79539;SDS011;68991;52.122;5.406;2023-07-13T13:15:32;2.85;;;1.70;;
79539;SDS011;68991;52.122;5.406;2023-07-13T13:17:59;3.70;;;1.80;;
79539;SDS011;68991;52.122;5.406;2023-07-13T13:20:26;2.03;;;1.75;;
79539;SDS011;68991;52.122;5.406;2023-07-13T13:22:53;2.95;;;1.88;;
79539;SDS011;68991;52.122;5.406;2023-07-13T13:25:21;2.17;;;1.50;;
79539;SDS011;68991;52.122;5.406;2023-07-13T13:27:48;2.70;;;1.85;;
79539;SDS011;68991;52.122;5.406;2023-07-13T13:30:16;3.38;;;1.58;;
79539;SDS011;68991;52.122;5.406;2023-07-13T13:32:44;1.90;;;1.60;;
79539;SDS011;68991;52.122;5.406;2023-07-13T13:35:14;3.08;;;1.75;;
79539;SDS011;68991;52.122;5.406;2023-07-13T13:37:42;2.10;;;1.58;;
79539;SDS011;68991;52.122;5.406;2023-07-13T13:40:16;2.72;;;1.63;;
79539;SDS011;68991;52.122;5.406;2023-07-13T13:42:44;2.22;;;1.33;;
79539;SDS011;68991;52.122;5.406;2023-07-13T13:45:11;2.90;;;1.67;;
79539;SDS011;68991;52.122;5.406;2023-07-13T13:47:39;2.75;;;1.67;;
79539;SDS011;68991;52.122;5.406;2023-07-13T13:50:24;2.45;;;1.70;;
79539;SDS011;68991;52.122;5.406;2023-07-13T13:52:51;2.13;;;1.38;;
79539;SDS011;68991;52.122;5.406;2023-07-13T13:55:18;2.42;;;1.30;;
79539;SDS011;68991;52.122;5.406;2023-07-13T13:57:47;3.22;;;1.60;;
79539;SDS011;68991;52.122;5.406;2023-07-13T14:00:14;2.20;;;1.60;;
79539;SDS011;68991;52.122;5.406;2023-07-13T14:02:44;1.92;;;1.50;;
79539;SDS011;68991;52.122;5.406;2023-07-13T14:05:18;2.80;;;1.40;;
79539;SDS011;68991;52.122;5.406;2023-07-13T14:07:48;1.67;;;1.30;;
79539;SDS011;68991;52.122;5.406;2023-07-13T14:10:17;2.80;;;1.45;;
79539;SDS011;68991;52.122;5.406;2023-07-13T14:12:45;2.55;;;1.60;;
79539;SDS011;68991;52.122;5.406;2023-07-13T14:15:19;2.75;;;1.58;;
79539;SDS011;68991;52.122;5.406;2023-07-13T14:17:49;2.78;;;1.73;;
79539;SDS011;68991;52.122;5.406;2023-07-13T14:20:19;2.42;;;1.60;;
79539;SDS011;68991;52.122;5.406;2023-07-13T14:22:47;2.25;;;1.50;;
79539;SDS011;68991;52.122;5.406;2023-07-13T14:25:15;1.80;;;1.50;;
79539;SDS011;68991;52.122;5.406;2023-07-13T14:27:43;3.45;;;1.63;;
79539;SDS011;68991;52.122;5.406;2023-07-13T14:30:14;2.80;;;1.50;;
79539;SDS011;68991;52.122;5.406;2023-07-13T14:32:42;2.40;;;1.63;;
79539;SDS011;68991;52.122;5.406;2023-07-13T14:35:11;3.22;;;1.73;;
79539;SDS011;68991;52.122;5.406;2023-07-13T14:37:41;1.95;;;1.48;;
79539;SDS011;68991;52.122;5.406;2023-07-13T14:40:13;2.60;;;1.80;;
79539;SDS011;68991;52.122;5.406;2023-07-13T14:42:42;2.58;;;1.88;;
79539;SDS011;68991;52.122;5.406;2023-07-13T14:45:15;3.75;;;1.60;;
79539;SDS011;68991;52.122;5.406;2023-07-13T14:47:44;3.35;;;1.73;;
79539;SDS011;68991;52.122;5.406;2023-07-13T14:52:56;3.45;;;1.77;;
79539;SDS011;68991;52.122;5.406;2023-07-13T14:55:23;2.03;;;1.60;;
79539;SDS011;68991;52.122;5.406;2023-07-13T14:57:52;1.83;;;1.38;;
79539;SDS011;68991;52.122;5.406;2023-07-13T15:00:20;3.17;;;1.80;;
79539;SDS011;68991;52.122;5.406;2023-07-13T15:05:24;2.78;;;1.00;;
79539;SDS011;68991;52.122;5.406;2023-07-13T15:07:56;2.90;;;1.85;;
79539;SDS011;68991;52.122;5.406;2023-07-13T15:10:26;3.45;;;1.60;;
79539;SDS011;68991;52.122;5.406;2023-07-13T15:13:12;3.30;;;1.52;;
79539;SDS011;68991;52.122;5.406;2023-07-13T15:15:46;3.85;;;1.63;;
79539;SDS011;68991;52.122;5.406;2023-07-13T15:18:15;2.45;;;1.60;;
79539;SDS011;68991;52.122;5.406;2023-07-13T15:20:44;2.78;;;1.60;;
79539;SDS011;68991;52.122;5.406;2023-07-13T15:23:12;4.95;;;1.77;;
79539;SDS011;68991;52.122;5.406;2023-07-13T15:25:40;2.90;;;1.80;;
79539;SDS011;68991;52.122;5.406;2023-07-13T15:28:08;2.80;;;1.50;;
79539;SDS011;68991;52.122;5.406;2023-07-13T15:30:36;2.40;;;1.60;;
79539;SDS011;68991;52.122;5.406;2023-07-13T15:33:14;3.17;;;1.70;;
79539;SDS011;68991;52.122;5.406;2023-07-13T15:35:43;2.15;;;1.42;;
79539;SDS011;68991;52.122;5.406;2023-07-13T15:38:18;2.50;;;1.80;;